sensor_id;sensor_type;location;lat;lon;timestamp;P1;durP1;ratioP1;P2;durP2;ratioP2
64199;SDS011;50516;52.272;5.136;2023-04-24T00:01:44;6.75;;;2.97;;
64199;SDS011;50516;52.272;5.136;2023-04-24T00:04:10;6.05;;;2.90;;
64199;SDS011;50516;52.272;5.136;2023-04-24T00:06:36;5.13;;;2.90;;
64199;SDS011;50516;52.272;5.136;2023-04-24T00:09:02;4.25;;;3.10;;
64199;SDS011;50516;52.272;5.136;2023-04-24T00:11:28;6.75;;;3.33;;
64199;SDS011;50516;52.272;5.136;2023-04-24T00:13:54;3.92;;;2.92;;
64199;SDS011;50516;52.272;5.136;2023-04-24T00:16:20;3.15;;;2.20;;
64199;SDS011;50516;52.272;5.136;2023-04-24T00:18:46;2.80;;;2.20;;
64199;SDS011;50516;52.272;5.136;2023-04-24T00:21:12;2.88;;;1.80;;
64199;SDS011;50516;52.272;5.136;2023-04-24T00:23:38;1.83;;;1.35;;
64199;SDS011;50516;52.272;5.136;2023-04-24T00:26:04;1.33;;;1.20;;
64199;SDS011;50516;52.272;5.136;2023-04-24T00:28:29;2.28;;;1.63;;
64199;SDS011;50516;52.272;5.136;2023-04-24T00:30:55;3.30;;;1.17;;
64199;SDS011;50516;52.272;5.136;2023-04-24T00:33:20;1.83;;;1.10;;
64199;SDS011;50516;52.272;5.136;2023-04-24T00:35:45;1.35;;;1.20;;
64199;SDS011;50516;52.272;5.136;2023-04-24T00:38:10;3.28;;;2.45;;
64199;SDS011;50516;52.272;5.136;2023-04-24T00:40:36;5.43;;;3.13;;
64199;SDS011;50516;52.272;5.136;2023-04-24T00:43:01;4.70;;;3.38;;
64199;SDS011;50516;52.272;5.136;2023-04-24T00:45:27;9.00;;;4.00;;
64199;SDS011;50516;52.272;5.136;2023-04-24T00:47:52;8.60;;;5.40;;
64199;SDS011;50516;52.272;5.136;2023-04-24T00:50:18;11.48;;;5.05;;
64199;SDS011;50516;52.272;5.136;2023-04-24T00:52:44;6.50;;;4.35;;
64199;SDS011;50516;52.272;5.136;2023-04-24T00:55:10;5.75;;;2.40;;
64199;SDS011;50516;52.272;5.136;2023-04-24T00:57:35;3.13;;;2.15;;
64199;SDS011;50516;52.272;5.136;2023-04-24T01:00:01;4.15;;;2.65;;
64199;SDS011;50516;52.272;5.136;2023-04-24T01:02:28;3.55;;;1.73;;
64199;SDS011;50516;52.272;5.136;2023-04-24T01:04:54;3.08;;;1.88;;
64199;SDS011;50516;52.272;5.136;2023-04-24T01:07:20;3.35;;;1.20;;
64199;SDS011;50516;52.272;5.136;2023-04-24T01:09:46;3.22;;;1.58;;
64199;SDS011;50516;52.272;5.136;2023-04-24T01:12:13;3.63;;;1.67;;
64199;SDS011;50516;52.272;5.136;2023-04-24T01:14:40;3.10;;;1.23;;
64199;SDS011;50516;52.272;5.136;2023-04-24T01:17:06;3.67;;;1.58;;
64199;SDS011;50516;52.272;5.136;2023-04-24T01:19:32;2.38;;;1.67;;
64199;SDS011;50516;52.272;5.136;2023-04-24T01:21:58;2.80;;;1.50;;
64199;SDS011;50516;52.272;5.136;2023-04-24T01:24:24;2.95;;;1.40;;
64199;SDS011;50516;52.272;5.136;2023-04-24T01:26:49;2.70;;;1.38;;
64199;SDS011;50516;52.272;5.136;2023-04-24T01:29:15;1.30;;;1.10;;
64199;SDS011;50516;52.272;5.136;2023-04-24T01:31:40;1.67;;;1.23;;
64199;SDS011;50516;52.272;5.136;2023-04-24T01:34:06;1.63;;;1.15;;
64199;SDS011;50516;52.272;5.136;2023-04-24T01:36:33;2.92;;;1.67;;
64199;SDS011;50516;52.272;5.136;2023-04-24T01:39:00;2.83;;;1.83;;
64199;SDS011;50516;52.272;5.136;2023-04-24T01:41:25;2.92;;;1.70;;
64199;SDS011;50516;52.272;5.136;2023-04-24T01:43:51;3.80;;;2.13;;
64199;SDS011;50516;52.272;5.136;2023-04-24T01:46:17;2.70;;;1.92;;
64199;SDS011;50516;52.272;5.136;2023-04-24T01:48:42;3.03;;;1.73;;
64199;SDS011;50516;52.272;5.136;2023-04-24T01:51:10;3.50;;;2.25;;
64199;SDS011;50516;52.272;5.136;2023-04-24T01:53:35;2.17;;;1.77;;
64199;SDS011;50516;52.272;5.136;2023-04-24T01:56:00;5.15;;;2.00;;
64199;SDS011;50516;52.272;5.136;2023-04-24T01:58:26;2.30;;;1.27;;
64199;SDS011;50516;52.272;5.136;2023-04-24T02:00:52;5.50;;;1.90;;
64199;SDS011;50516;52.272;5.136;2023-04-24T02:03:17;1.80;;;1.58;;
64199;SDS011;50516;52.272;5.136;2023-04-24T02:05:43;1.80;;;1.38;;
64199;SDS011;50516;52.272;5.136;2023-04-24T02:08:10;2.22;;;1.50;;
64199;SDS011;50516;52.272;5.136;2023-04-24T02:10:35;3.97;;;1.77;;
64199;SDS011;50516;52.272;5.136;2023-04-24T02:13:00;2.90;;;0.85;;
64199;SDS011;50516;52.272;5.136;2023-04-24T02:15:26;1.50;;;1.40;;
64199;SDS011;50516;52.272;5.136;2023-04-24T02:17:51;1.88;;;1.33;;
64199;SDS011;50516;52.272;5.136;2023-04-24T02:20:16;3.10;;;1.80;;
64199;SDS011;50516;52.272;5.136;2023-04-24T02:22:42;4.57;;;1.10;;
64199;SDS011;50516;52.272;5.136;2023-04-24T02:25:08;2.10;;;1.20;;
64199;SDS011;50516;52.272;5.136;2023-04-24T02:27:33;2.45;;;1.50;;
64199;SDS011;50516;52.272;5.136;2023-04-24T02:29:58;1.65;;;1.40;;
64199;SDS011;50516;52.272;5.136;2023-04-24T02:32:24;1.48;;;1.08;;
64199;SDS011;50516;52.272;5.136;2023-04-24T02:34:49;2.33;;;0.98;;
64199;SDS011;50516;52.272;5.136;2023-04-24T02:37:15;2.63;;;1.20;;
64199;SDS011;50516;52.272;5.136;2023-04-24T02:39:40;1.23;;;1.10;;
64199;SDS011;50516;52.272;5.136;2023-04-24T02:42:05;1.35;;;0.88;;
64199;SDS011;50516;52.272;5.136;2023-04-24T02:44:32;3.67;;;1.40;;
64199;SDS011;50516;52.272;5.136;2023-04-24T02:46:58;1.52;;;1.42;;
64199;SDS011;50516;52.272;5.136;2023-04-24T02:49:23;3.28;;;1.60;;
64199;SDS011;50516;52.272;5.136;2023-04-24T02:51:49;1.30;;;1.00;;
64199;SDS011;50516;52.272;5.136;2023-04-24T02:54:14;4.00;;;1.27;;
64199;SDS011;50516;52.272;5.136;2023-04-24T02:56:39;1.15;;;0.80;;
64199;SDS011;50516;52.272;5.136;2023-04-24T02:59:05;1.67;;;1.10;;
64199;SDS011;50516;52.272;5.136;2023-04-24T03:01:30;2.45;;;1.48;;
64199;SDS011;50516;52.272;5.136;2023-04-24T03:03:55;1.80;;;1.38;;
64199;SDS011;50516;52.272;5.136;2023-04-24T03:06:21;3.38;;;1.35;;
64199;SDS011;50516;52.272;5.136;2023-04-24T03:08:46;1.60;;;1.30;;
64199;SDS011;50516;52.272;5.136;2023-04-24T03:11:12;2.88;;;1.50;;
64199;SDS011;50516;52.272;5.136;2023-04-24T03:13:37;1.52;;;1.42;;
64199;SDS011;50516;52.272;5.136;2023-04-24T03:16:02;3.25;;;1.95;;
64199;SDS011;50516;52.272;5.136;2023-04-24T03:18:27;2.28;;;1.52;;
64199;SDS011;50516;52.272;5.136;2023-04-24T03:20:53;2.13;;;1.77;;
64199;SDS011;50516;52.272;5.136;2023-04-24T03:23:18;1.95;;;1.40;;
64199;SDS011;50516;52.272;5.136;2023-04-24T03:25:43;2.80;;;1.45;;
64199;SDS011;50516;52.272;5.136;2023-04-24T03:28:09;3.67;;;1.48;;
64199;SDS011;50516;52.272;5.136;2023-04-24T03:30:34;4.05;;;1.88;;
64199;SDS011;50516;52.272;5.136;2023-04-24T03:32:59;2.95;;;1.65;;
64199;SDS011;50516;52.272;5.136;2023-04-24T03:35:25;3.42;;;1.67;;
64199;SDS011;50516;52.272;5.136;2023-04-24T03:37:50;1.92;;;1.50;;
64199;SDS011;50516;52.272;5.136;2023-04-24T03:40:15;3.95;;;1.80;;
64199;SDS011;50516;52.272;5.136;2023-04-24T03:42:41;3.70;;;1.80;;
64199;SDS011;50516;52.272;5.136;2023-04-24T03:45:06;3.03;;;1.92;;
64199;SDS011;50516;52.272;5.136;2023-04-24T03:47:32;1.50;;;1.40;;
64199;SDS011;50516;52.272;5.136;2023-04-24T03:49:57;3.40;;;1.98;;
64199;SDS011;50516;52.272;5.136;2023-04-24T03:52:23;2.20;;;1.65;;
64199;SDS011;50516;52.272;5.136;2023-04-24T03:54:48;3.50;;;2.20;;
64199;SDS011;50516;52.272;5.136;2023-04-24T03:57:13;3.10;;;1.75;;
64199;SDS011;50516;52.272;5.136;2023-04-24T03:59:39;3.17;;;2.40;;
64199;SDS011;50516;52.272;5.136;2023-04-24T04:02:04;8.15;;;2.30;;
64199;SDS011;50516;52.272;5.136;2023-04-24T04:04:30;3.35;;;2.50;;
64199;SDS011;50516;52.272;5.136;2023-04-24T04:06:55;3.88;;;2.40;;
64199;SDS011;50516;52.272;5.136;2023-04-24T04:09:20;3.65;;;2.20;;
64199;SDS011;50516;52.272;5.136;2023-04-24T04:11:45;3.60;;;2.20;;
64199;SDS011;50516;52.272;5.136;2023-04-24T04:14:11;4.55;;;2.38;;
64199;SDS011;50516;52.272;5.136;2023-04-24T04:16:36;3.30;;;1.80;;
64199;SDS011;50516;52.272;5.136;2023-04-24T04:19:02;2.88;;;2.15;;
64199;SDS011;50516;52.272;5.136;2023-04-24T04:21:28;1.90;;;1.80;;
64199;SDS011;50516;52.272;5.136;2023-04-24T04:23:53;6.13;;;2.13;;
64199;SDS011;50516;52.272;5.136;2023-04-24T04:26:19;3.40;;;1.80;;
64199;SDS011;50516;52.272;5.136;2023-04-24T04:28:46;2.40;;;1.80;;
64199;SDS011;50516;52.272;5.136;2023-04-24T04:31:12;4.85;;;2.17;;
64199;SDS011;50516;52.272;5.136;2023-04-24T04:33:38;3.28;;;1.92;;
64199;SDS011;50516;52.272;5.136;2023-04-24T04:36:04;2.13;;;1.50;;
64199;SDS011;50516;52.272;5.136;2023-04-24T04:38:29;2.15;;;1.63;;
64199;SDS011;50516;52.272;5.136;2023-04-24T04:40:55;2.50;;;1.50;;
64199;SDS011;50516;52.272;5.136;2023-04-24T04:43:22;3.50;;;1.75;;
64199;SDS011;50516;52.272;5.136;2023-04-24T04:45:51;2.13;;;1.60;;
64199;SDS011;50516;52.272;5.136;2023-04-24T04:48:17;2.08;;;1.30;;
64199;SDS011;50516;52.272;5.136;2023-04-24T04:50:43;2.08;;;1.30;;
64199;SDS011;50516;52.272;5.136;2023-04-24T04:53:09;2.38;;;1.35;;
64199;SDS011;50516;52.272;5.136;2023-04-24T04:55:34;2.70;;;1.30;;
64199;SDS011;50516;52.272;5.136;2023-04-24T04:58:00;1.80;;;1.17;;
64199;SDS011;50516;52.272;5.136;2023-04-24T05:00:25;4.40;;;1.13;;
64199;SDS011;50516;52.272;5.136;2023-04-24T05:02:52;2.75;;;1.60;;
64199;SDS011;50516;52.272;5.136;2023-04-24T05:05:17;2.38;;;1.02;;
64199;SDS011;50516;52.272;5.136;2023-04-24T05:07:43;2.42;;;1.42;;
64199;SDS011;50516;52.272;5.136;2023-04-24T05:10:09;2.60;;;1.75;;
64199;SDS011;50516;52.272;5.136;2023-04-24T05:12:34;2.58;;;1.55;;
64199;SDS011;50516;52.272;5.136;2023-04-24T05:15:00;3.80;;;1.55;;
64199;SDS011;50516;52.272;5.136;2023-04-24T05:17:25;2.17;;;1.65;;
64199;SDS011;50516;52.272;5.136;2023-04-24T05:19:50;3.17;;;1.67;;
64199;SDS011;50516;52.272;5.136;2023-04-24T05:22:16;4.57;;;2.15;;
64199;SDS011;50516;52.272;5.136;2023-04-24T05:24:43;2.45;;;1.98;;
64199;SDS011;50516;52.272;5.136;2023-04-24T05:27:08;4.93;;;1.90;;
64199;SDS011;50516;52.272;5.136;2023-04-24T05:29:34;5.00;;;1.88;;
64199;SDS011;50516;52.272;5.136;2023-04-24T05:31:59;1.67;;;1.55;;
64199;SDS011;50516;52.272;5.136;2023-04-24T05:34:25;5.80;;;1.50;;
64199;SDS011;50516;52.272;5.136;2023-04-24T05:36:51;4.88;;;2.35;;
64199;SDS011;50516;52.272;5.136;2023-04-24T05:39:16;2.88;;;1.50;;
64199;SDS011;50516;52.272;5.136;2023-04-24T05:41:42;2.13;;;1.48;;
64199;SDS011;50516;52.272;5.136;2023-04-24T05:44:07;4.93;;;2.17;;
64199;SDS011;50516;52.272;5.136;2023-04-24T05:46:32;3.10;;;2.10;;
64199;SDS011;50516;52.272;5.136;2023-04-24T05:48:57;3.63;;;1.60;;
64199;SDS011;50516;52.272;5.136;2023-04-24T05:51:23;3.10;;;1.67;;
64199;SDS011;50516;52.272;5.136;2023-04-24T05:53:48;6.55;;;1.65;;
64199;SDS011;50516;52.272;5.136;2023-04-24T05:56:14;2.17;;;1.38;;
64199;SDS011;50516;52.272;5.136;2023-04-24T05:58:40;3.65;;;2.20;;
64199;SDS011;50516;52.272;5.136;2023-04-24T06:01:05;12.18;;;6.65;;
64199;SDS011;50516;52.272;5.136;2023-04-24T06:03:31;15.25;;;8.93;;
64199;SDS011;50516;52.272;5.136;2023-04-24T06:05:56;17.67;;;10.77;;
64199;SDS011;50516;52.272;5.136;2023-04-24T06:08:21;20.92;;;12.25;;
64199;SDS011;50516;52.272;5.136;2023-04-24T06:10:47;23.42;;;12.60;;
64199;SDS011;50516;52.272;5.136;2023-04-24T06:13:12;23.60;;;14.25;;
64199;SDS011;50516;52.272;5.136;2023-04-24T06:15:37;24.42;;;14.63;;
64199;SDS011;50516;52.272;5.136;2023-04-24T06:18:03;23.30;;;13.93;;
64199;SDS011;50516;52.272;5.136;2023-04-24T06:20:28;28.42;;;14.45;;
64199;SDS011;50516;52.272;5.136;2023-04-24T06:22:53;24.73;;;14.55;;
64199;SDS011;50516;52.272;5.136;2023-04-24T06:25:19;25.20;;;14.45;;
64199;SDS011;50516;52.272;5.136;2023-04-24T06:27:44;29.58;;;13.98;;
64199;SDS011;50516;52.272;5.136;2023-04-24T06:30:10;21.13;;;12.77;;
64199;SDS011;50516;52.272;5.136;2023-04-24T06:32:35;25.48;;;14.30;;
64199;SDS011;50516;52.272;5.136;2023-04-24T06:35:01;19.05;;;11.82;;
64199;SDS011;50516;52.272;5.136;2023-04-24T06:37:26;16.48;;;11.10;;
64199;SDS011;50516;52.272;5.136;2023-04-24T06:39:52;25.67;;;11.05;;
64199;SDS011;50516;52.272;5.136;2023-04-24T06:42:17;24.63;;;10.80;;
64199;SDS011;50516;52.272;5.136;2023-04-24T06:44:42;22.05;;;11.02;;
64199;SDS011;50516;52.272;5.136;2023-04-24T06:47:08;19.27;;;8.95;;
64199;SDS011;50516;52.272;5.136;2023-04-24T06:49:38;13.82;;;8.75;;
64199;SDS011;50516;52.272;5.136;2023-04-24T06:52:04;17.27;;;8.80;;
64199;SDS011;50516;52.272;5.136;2023-04-24T06:54:30;18.50;;;8.52;;
64199;SDS011;50516;52.272;5.136;2023-04-24T06:56:56;18.15;;;10.07;;
64199;SDS011;50516;52.272;5.136;2023-04-24T06:59:22;17.42;;;8.95;;
64199;SDS011;50516;52.272;5.136;2023-04-24T07:01:50;20.95;;;8.85;;
64199;SDS011;50516;52.272;5.136;2023-04-24T07:04:16;16.65;;;8.38;;
64199;SDS011;50516;52.272;5.136;2023-04-24T07:06:42;17.38;;;9.52;;
64199;SDS011;50516;52.272;5.136;2023-04-24T07:09:08;16.77;;;8.82;;
64199;SDS011;50516;52.272;5.136;2023-04-24T07:11:34;20.60;;;8.38;;
64199;SDS011;50516;52.272;5.136;2023-04-24T07:14:00;25.20;;;10.27;;
64199;SDS011;50516;52.272;5.136;2023-04-24T07:16:25;18.75;;;9.57;;
64199;SDS011;50516;52.272;5.136;2023-04-24T07:18:51;16.10;;;8.57;;
64199;SDS011;50516;52.272;5.136;2023-04-24T07:21:16;17.77;;;8.05;;
64199;SDS011;50516;52.272;5.136;2023-04-24T07:23:42;15.07;;;8.18;;
64199;SDS011;50516;52.272;5.136;2023-04-24T07:26:07;18.15;;;7.63;;
64199;SDS011;50516;52.272;5.136;2023-04-24T07:28:32;18.70;;;7.70;;
64199;SDS011;50516;52.272;5.136;2023-04-24T07:30:58;22.75;;;7.20;;
64199;SDS011;50516;52.272;5.136;2023-04-24T07:33:24;15.93;;;6.82;;
64199;SDS011;50516;52.272;5.136;2023-04-24T07:35:50;17.92;;;7.07;;
64199;SDS011;50516;52.272;5.136;2023-04-24T07:38:16;18.23;;;6.72;;
64199;SDS011;50516;52.272;5.136;2023-04-24T07:40:41;16.33;;;6.88;;
64199;SDS011;50516;52.272;5.136;2023-04-24T07:43:07;17.30;;;6.95;;
64199;SDS011;50516;52.272;5.136;2023-04-24T07:45:32;13.65;;;6.65;;
64199;SDS011;50516;52.272;5.136;2023-04-24T07:48:01;21.50;;;8.65;;
64199;SDS011;50516;52.272;5.136;2023-04-24T07:50:26;11.70;;;5.57;;
64199;SDS011;50516;52.272;5.136;2023-04-24T07:52:51;16.33;;;5.80;;
64199;SDS011;50516;52.272;5.136;2023-04-24T07:55:16;23.77;;;6.22;;
64199;SDS011;50516;52.272;5.136;2023-04-24T07:57:42;24.08;;;7.18;;
64199;SDS011;50516;52.272;5.136;2023-04-24T08:00:07;18.17;;;5.55;;
64199;SDS011;50516;52.272;5.136;2023-04-24T08:02:33;20.58;;;5.38;;
64199;SDS011;50516;52.272;5.136;2023-04-24T08:04:58;24.38;;;5.28;;
64199;SDS011;50516;52.272;5.136;2023-04-24T08:07:23;21.67;;;5.18;;
64199;SDS011;50516;52.272;5.136;2023-04-24T08:09:49;11.23;;;3.92;;
64199;SDS011;50516;52.272;5.136;2023-04-24T08:12:14;15.55;;;5.03;;
64199;SDS011;50516;52.272;5.136;2023-04-24T08:14:40;13.13;;;4.93;;
64199;SDS011;50516;52.272;5.136;2023-04-24T08:17:05;21.95;;;5.60;;
64199;SDS011;50516;52.272;5.136;2023-04-24T08:19:30;13.90;;;4.30;;
64199;SDS011;50516;52.272;5.136;2023-04-24T08:21:56;10.80;;;4.20;;
64199;SDS011;50516;52.272;5.136;2023-04-24T08:24:21;23.85;;;6.03;;
64199;SDS011;50516;52.272;5.136;2023-04-24T08:26:47;17.10;;;5.57;;
64199;SDS011;50516;52.272;5.136;2023-04-24T08:29:16;19.77;;;5.28;;
64199;SDS011;50516;52.272;5.136;2023-04-24T08:31:41;20.98;;;5.18;;
64199;SDS011;50516;52.272;5.136;2023-04-24T08:34:07;17.27;;;4.95;;
64199;SDS011;50516;52.272;5.136;2023-04-24T08:36:32;18.52;;;4.25;;
64199;SDS011;50516;52.272;5.136;2023-04-24T08:38:57;22.27;;;4.95;;
64199;SDS011;50516;52.272;5.136;2023-04-24T08:41:23;13.93;;;3.88;;
64199;SDS011;50516;52.272;5.136;2023-04-24T08:43:51;16.50;;;5.20;;
64199;SDS011;50516;52.272;5.136;2023-04-24T08:46:16;16.58;;;4.38;;
64199;SDS011;50516;52.272;5.136;2023-04-24T08:48:44;15.32;;;3.83;;
64199;SDS011;50516;52.272;5.136;2023-04-24T08:51:10;17.42;;;3.80;;
64199;SDS011;50516;52.272;5.136;2023-04-24T08:53:36;19.13;;;3.70;;
64199;SDS011;50516;52.272;5.136;2023-04-24T08:56:02;11.85;;;4.22;;
64199;SDS011;50516;52.272;5.136;2023-04-24T08:58:27;14.73;;;4.28;;
64199;SDS011;50516;52.272;5.136;2023-04-24T09:00:57;16.50;;;4.22;;
64199;SDS011;50516;52.272;5.136;2023-04-24T09:03:23;12.27;;;3.78;;
64199;SDS011;50516;52.272;5.136;2023-04-24T09:05:49;15.43;;;3.28;;
64199;SDS011;50516;52.272;5.136;2023-04-24T09:08:18;12.30;;;3.22;;
64199;SDS011;50516;52.272;5.136;2023-04-24T09:10:44;11.75;;;3.22;;
64199;SDS011;50516;52.272;5.136;2023-04-24T09:13:09;19.65;;;4.63;;
64199;SDS011;50516;52.272;5.136;2023-04-24T09:15:35;14.45;;;3.70;;
64199;SDS011;50516;52.272;5.136;2023-04-24T09:18:01;14.13;;;3.60;;
64199;SDS011;50516;52.272;5.136;2023-04-24T09:20:27;14.52;;;3.88;;
64199;SDS011;50516;52.272;5.136;2023-04-24T09:22:56;11.43;;;3.90;;
64199;SDS011;50516;52.272;5.136;2023-04-24T09:25:22;18.48;;;4.40;;
64199;SDS011;50516;52.272;5.136;2023-04-24T09:27:48;12.02;;;4.10;;
64199;SDS011;50516;52.272;5.136;2023-04-24T09:30:13;16.50;;;3.25;;
64199;SDS011;50516;52.272;5.136;2023-04-24T09:32:39;10.32;;;3.63;;
64199;SDS011;50516;52.272;5.136;2023-04-24T09:35:13;8.90;;;3.00;;
64199;SDS011;50516;52.272;5.136;2023-04-24T09:37:43;12.65;;;3.65;;
64199;SDS011;50516;52.272;5.136;2023-04-24T09:40:15;10.85;;;3.35;;
64199;SDS011;50516;52.272;5.136;2023-04-24T09:43:00;17.85;;;4.45;;
64199;SDS011;50516;52.272;5.136;2023-04-24T09:45:28;11.30;;;3.38;;
64199;SDS011;50516;52.272;5.136;2023-04-24T09:47:59;12.32;;;3.97;;
64199;SDS011;50516;52.272;5.136;2023-04-24T09:50:25;9.85;;;3.35;;
64199;SDS011;50516;52.272;5.136;2023-04-24T09:52:57;13.75;;;3.22;;
64199;SDS011;50516;52.272;5.136;2023-04-24T09:55:24;12.45;;;3.28;;
64199;SDS011;50516;52.272;5.136;2023-04-24T09:57:50;7.68;;;2.65;;
64199;SDS011;50516;52.272;5.136;2023-04-24T10:00:17;8.75;;;3.03;;
64199;SDS011;50516;52.272;5.136;2023-04-24T10:02:54;12.35;;;3.40;;
64199;SDS011;50516;52.272;5.136;2023-04-24T10:07:56;12.38;;;3.15;;
64199;SDS011;50516;52.272;5.136;2023-04-24T10:10:22;7.30;;;2.25;;
64199;SDS011;50516;52.272;5.136;2023-04-24T10:12:47;5.68;;;2.45;;
64199;SDS011;50516;52.272;5.136;2023-04-24T10:15:13;7.30;;;2.78;;
64199;SDS011;50516;52.272;5.136;2023-04-24T10:17:42;6.25;;;2.53;;
64199;SDS011;50516;52.272;5.136;2023-04-24T10:20:10;9.30;;;2.20;;
64199;SDS011;50516;52.272;5.136;2023-04-24T10:22:35;11.18;;;2.38;;
64199;SDS011;50516;52.272;5.136;2023-04-24T10:25:03;6.35;;;2.65;;
64199;SDS011;50516;52.272;5.136;2023-04-24T10:27:29;12.15;;;2.67;;
64199;SDS011;50516;52.272;5.136;2023-04-24T10:29:55;10.40;;;2.80;;
64199;SDS011;50516;52.272;5.136;2023-04-24T10:32:21;10.13;;;2.55;;
64199;SDS011;50516;52.272;5.136;2023-04-24T10:34:46;6.38;;;2.13;;
64199;SDS011;50516;52.272;5.136;2023-04-24T10:37:12;8.18;;;2.20;;
64199;SDS011;50516;52.272;5.136;2023-04-24T10:39:38;7.47;;;2.28;;
64199;SDS011;50516;52.272;5.136;2023-04-24T10:42:13;5.97;;;2.15;;
64199;SDS011;50516;52.272;5.136;2023-04-24T10:44:40;6.50;;;2.20;;
64199;SDS011;50516;52.272;5.136;2023-04-24T10:47:05;5.38;;;1.83;;
64199;SDS011;50516;52.272;5.136;2023-04-24T10:49:37;8.90;;;2.15;;
64199;SDS011;50516;52.272;5.136;2023-04-24T10:52:03;6.40;;;2.92;;
64199;SDS011;50516;52.272;5.136;2023-04-24T10:54:44;5.97;;;2.10;;
64199;SDS011;50516;52.272;5.136;2023-04-24T10:59:46;5.20;;;1.75;;
64199;SDS011;50516;52.272;5.136;2023-04-24T11:02:15;5.78;;;1.77;;
64199;SDS011;50516;52.272;5.136;2023-04-24T11:04:40;4.65;;;1.73;;
64199;SDS011;50516;52.272;5.136;2023-04-24T11:07:08;7.25;;;2.65;;
64199;SDS011;50516;52.272;5.136;2023-04-24T11:09:34;7.72;;;1.90;;
64199;SDS011;50516;52.272;5.136;2023-04-24T11:12:05;4.75;;;1.67;;
64199;SDS011;50516;52.272;5.136;2023-04-24T11:17:29;4.32;;;1.67;;
64199;SDS011;50516;52.272;5.136;2023-04-24T11:20:00;5.95;;;1.63;;
64199;SDS011;50516;52.272;5.136;2023-04-24T11:22:26;4.82;;;1.45;;
64199;SDS011;50516;52.272;5.136;2023-04-24T11:24:56;5.47;;;2.13;;
64199;SDS011;50516;52.272;5.136;2023-04-24T11:27:22;6.03;;;1.48;;
64199;SDS011;50516;52.272;5.136;2023-04-24T11:37:35;4.22;;;1.70;;
64199;SDS011;50516;52.272;5.136;2023-04-24T11:40:01;5.82;;;2.05;;
64199;SDS011;50516;52.272;5.136;2023-04-24T11:42:33;8.65;;;1.95;;
64199;SDS011;50516;52.272;5.136;2023-04-24T11:45:01;5.75;;;2.08;;
64199;SDS011;50516;52.272;5.136;2023-04-24T11:47:27;4.53;;;2.13;;
64199;SDS011;50516;52.272;5.136;2023-04-24T11:49:54;8.50;;;2.20;;
64199;SDS011;50516;52.272;5.136;2023-04-24T11:52:20;9.77;;;2.67;;
64199;SDS011;50516;52.272;5.136;2023-04-24T11:54:49;3.67;;;1.67;;
64199;SDS011;50516;52.272;5.136;2023-04-24T11:57:21;7.53;;;2.17;;
64199;SDS011;50516;52.272;5.136;2023-04-24T11:59:47;5.57;;;1.80;;
64199;SDS011;50516;52.272;5.136;2023-04-24T12:02:22;7.88;;;2.33;;
64199;SDS011;50516;52.272;5.136;2023-04-24T12:04:49;6.53;;;2.90;;
64199;SDS011;50516;52.272;5.136;2023-04-24T12:07:14;6.20;;;2.08;;
64199;SDS011;50516;52.272;5.136;2023-04-24T12:09:41;8.65;;;2.25;;
64199;SDS011;50516;52.272;5.136;2023-04-24T12:12:07;5.38;;;2.33;;
64199;SDS011;50516;52.272;5.136;2023-04-24T12:14:33;5.93;;;2.17;;
64199;SDS011;50516;52.272;5.136;2023-04-24T12:17:06;7.70;;;2.00;;
64199;SDS011;50516;52.272;5.136;2023-04-24T12:19:31;6.97;;;2.30;;
64199;SDS011;50516;52.272;5.136;2023-04-24T12:22:00;8.65;;;2.47;;
64199;SDS011;50516;52.272;5.136;2023-04-24T12:24:27;6.40;;;2.58;;
64199;SDS011;50516;52.272;5.136;2023-04-24T12:26:53;7.47;;;3.05;;
64199;SDS011;50516;52.272;5.136;2023-04-24T12:29:21;11.93;;;3.10;;
64199;SDS011;50516;52.272;5.136;2023-04-24T12:31:47;12.35;;;3.55;;
64199;SDS011;50516;52.272;5.136;2023-04-24T12:34:22;10.98;;;2.90;;
64199;SDS011;50516;52.272;5.136;2023-04-24T12:36:49;18.63;;;3.67;;
64199;SDS011;50516;52.272;5.136;2023-04-24T12:39:15;14.90;;;3.78;;
64199;SDS011;50516;52.272;5.136;2023-04-24T12:41:55;14.63;;;3.63;;
64199;SDS011;50516;52.272;5.136;2023-04-24T12:44:28;10.45;;;4.43;;
64199;SDS011;50516;52.272;5.136;2023-04-24T12:46:59;14.43;;;4.10;;
64199;SDS011;50516;52.272;5.136;2023-04-24T12:49:27;14.82;;;3.80;;
64199;SDS011;50516;52.272;5.136;2023-04-24T12:51:53;21.05;;;4.40;;
64199;SDS011;50516;52.272;5.136;2023-04-24T12:54:18;24.17;;;5.10;;
64199;SDS011;50516;52.272;5.136;2023-04-24T12:56:44;17.83;;;4.15;;
64199;SDS011;50516;52.272;5.136;2023-04-24T12:59:09;17.02;;;4.53;;
64199;SDS011;50516;52.272;5.136;2023-04-24T13:01:34;16.10;;;4.07;;
64199;SDS011;50516;52.272;5.136;2023-04-24T13:04:00;16.13;;;4.43;;
64199;SDS011;50516;52.272;5.136;2023-04-24T13:06:25;21.38;;;4.75;;
64199;SDS011;50516;52.272;5.136;2023-04-24T13:08:51;18.63;;;3.83;;
64199;SDS011;50516;52.272;5.136;2023-04-24T13:11:16;12.38;;;4.13;;
64199;SDS011;50516;52.272;5.136;2023-04-24T13:13:42;18.52;;;4.40;;
64199;SDS011;50516;52.272;5.136;2023-04-24T13:16:07;15.75;;;4.38;;
64199;SDS011;50516;52.272;5.136;2023-04-24T13:18:32;23.38;;;4.82;;
64199;SDS011;50516;52.272;5.136;2023-04-24T13:20:57;18.10;;;4.95;;
64199;SDS011;50516;52.272;5.136;2023-04-24T13:23:23;15.63;;;3.85;;
64199;SDS011;50516;52.272;5.136;2023-04-24T13:25:48;18.20;;;4.45;;
64199;SDS011;50516;52.272;5.136;2023-04-24T13:28:14;15.52;;;4.00;;
64199;SDS011;50516;52.272;5.136;2023-04-24T13:30:39;14.40;;;4.57;;
64199;SDS011;50516;52.272;5.136;2023-04-24T13:33:05;19.85;;;5.40;;
64199;SDS011;50516;52.272;5.136;2023-04-24T13:35:30;12.65;;;4.35;;
64199;SDS011;50516;52.272;5.136;2023-04-24T13:37:55;16.45;;;4.50;;
64199;SDS011;50516;52.272;5.136;2023-04-24T13:40:22;15.68;;;4.63;;
64199;SDS011;50516;52.272;5.136;2023-04-24T13:42:47;14.43;;;4.47;;
64199;SDS011;50516;52.272;5.136;2023-04-24T13:45:13;12.50;;;3.92;;
64199;SDS011;50516;52.272;5.136;2023-04-24T13:47:38;10.07;;;3.70;;
64199;SDS011;50516;52.272;5.136;2023-04-24T13:50:05;11.15;;;3.83;;
64199;SDS011;50516;52.272;5.136;2023-04-24T13:52:34;9.18;;;3.75;;
64199;SDS011;50516;52.272;5.136;2023-04-24T13:55:00;13.75;;;4.25;;
64199;SDS011;50516;52.272;5.136;2023-04-24T13:57:25;12.38;;;3.35;;
64199;SDS011;50516;52.272;5.136;2023-04-24T13:59:50;12.43;;;3.85;;
64199;SDS011;50516;52.272;5.136;2023-04-24T14:02:16;14.88;;;3.63;;
64199;SDS011;50516;52.272;5.136;2023-04-24T14:04:41;16.27;;;4.20;;
64199;SDS011;50516;52.272;5.136;2023-04-24T14:07:06;14.48;;;4.55;;
64199;SDS011;50516;52.272;5.136;2023-04-24T14:09:33;13.93;;;4.15;;
64199;SDS011;50516;52.272;5.136;2023-04-24T14:11:58;16.15;;;4.85;;
64199;SDS011;50516;52.272;5.136;2023-04-24T14:14:25;15.10;;;4.97;;
64199;SDS011;50516;52.272;5.136;2023-04-24T14:16:51;19.20;;;4.50;;
64199;SDS011;50516;52.272;5.136;2023-04-24T14:19:16;15.52;;;4.75;;
64199;SDS011;50516;52.272;5.136;2023-04-24T14:21:42;14.07;;;4.38;;
64199;SDS011;50516;52.272;5.136;2023-04-24T14:24:07;13.18;;;4.28;;
64199;SDS011;50516;52.272;5.136;2023-04-24T14:26:33;19.83;;;4.55;;
64199;SDS011;50516;52.272;5.136;2023-04-24T14:28:58;14.45;;;4.10;;
64199;SDS011;50516;52.272;5.136;2023-04-24T14:31:24;7.25;;;3.40;;
64199;SDS011;50516;52.272;5.136;2023-04-24T14:33:49;13.10;;;4.35;;
64199;SDS011;50516;52.272;5.136;2023-04-24T14:36:14;13.70;;;4.15;;
64199;SDS011;50516;52.272;5.136;2023-04-24T14:38:40;10.98;;;3.88;;
64199;SDS011;50516;52.272;5.136;2023-04-24T14:41:05;16.52;;;5.32;;
64199;SDS011;50516;52.272;5.136;2023-04-24T14:43:34;13.25;;;3.85;;
64199;SDS011;50516;52.272;5.136;2023-04-24T14:46:00;13.48;;;4.32;;
64199;SDS011;50516;52.272;5.136;2023-04-24T14:48:25;10.30;;;4.30;;
64199;SDS011;50516;52.272;5.136;2023-04-24T14:50:50;9.63;;;4.13;;